sensor_id;sensor_type;location;lat;lon;timestamp;P1;durP1;ratioP1;P2;durP2;ratioP2
72053;SDS011;59918;51.280;7.950;2022-12-18T00:00:59;3.58;;;1.80;;
72053;SDS011;59918;51.280;7.950;2022-12-18T00:03:25;6.45;;;4.10;;
72053;SDS011;59918;51.280;7.950;2022-12-18T00:05:51;4.05;;;1.85;;
72053;SDS011;59918;51.280;7.950;2022-12-18T00:08:16;5.10;;;1.90;;
72053;SDS011;59918;51.280;7.950;2022-12-18T00:10:42;2.97;;;1.80;;
72053;SDS011;59918;51.280;7.950;2022-12-18T00:13:08;2.88;;;1.65;;
72053;SDS011;59918;51.280;7.950;2022-12-18T00:15:34;3.55;;;2.15;;
72053;SDS011;59918;51.280;7.950;2022-12-18T00:18:00;2.20;;;1.60;;
72053;SDS011;59918;51.280;7.950;2022-12-18T00:20:25;3.50;;;1.65;;
72053;SDS011;59918;51.280;7.950;2022-12-18T00:22:53;2.17;;;1.55;;
72053;SDS011;59918;51.280;7.950;2022-12-18T00:25:19;2.38;;;1.73;;
72053;SDS011;59918;51.280;7.950;2022-12-18T00:27:45;2.97;;;2.15;;
72053;SDS011;59918;51.280;7.950;2022-12-18T00:30:10;3.20;;;1.92;;
72053;SDS011;59918;51.280;7.950;2022-12-18T00:32:36;2.28;;;1.30;;
72053;SDS011;59918;51.280;7.950;2022-12-18T00:35:01;4.30;;;1.77;;
72053;SDS011;59918;51.280;7.950;2022-12-18T00:37:26;2.85;;;1.70;;
72053;SDS011;59918;51.280;7.950;2022-12-18T00:39:51;3.33;;;1.65;;
72053;SDS011;59918;51.280;7.950;2022-12-18T00:42:17;2.33;;;1.73;;
72053;SDS011;59918;51.280;7.950;2022-12-18T00:44:42;2.72;;;1.95;;
72053;SDS011;59918;51.280;7.950;2022-12-18T00:47:07;5.40;;;2.05;;
72053;SDS011;59918;51.280;7.950;2022-12-18T00:49:32;3.25;;;2.47;;
72053;SDS011;59918;51.280;7.950;2022-12-18T00:51:57;2.92;;;2.20;;
72053;SDS011;59918;51.280;7.950;2022-12-18T00:54:23;2.72;;;2.08;;
72053;SDS011;59918;51.280;7.950;2022-12-18T00:56:48;3.60;;;2.10;;
72053;SDS011;59918;51.280;7.950;2022-12-18T00:59:13;5.70;;;2.47;;
72053;SDS011;59918;51.280;7.950;2022-12-18T01:01:39;2.33;;;1.98;;
72053;SDS011;59918;51.280;7.950;2022-12-18T01:04:04;3.25;;;2.10;;
72053;SDS011;59918;51.280;7.950;2022-12-18T01:06:30;5.57;;;3.25;;
72053;SDS011;59918;51.280;7.950;2022-12-18T01:08:55;3.30;;;2.22;;
72053;SDS011;59918;51.280;7.950;2022-12-18T01:11:20;3.55;;;2.40;;
72053;SDS011;59918;51.280;7.950;2022-12-18T01:13:46;3.78;;;2.28;;
72053;SDS011;59918;51.280;7.950;2022-12-18T01:16:13;7.25;;;2.50;;
72053;SDS011;59918;51.280;7.950;2022-12-18T01:18:39;3.97;;;2.60;;
72053;SDS011;59918;51.280;7.950;2022-12-18T01:21:06;4.40;;;2.47;;
72053;SDS011;59918;51.280;7.950;2022-12-18T01:23:35;4.20;;;2.67;;
72053;SDS011;59918;51.280;7.950;2022-12-18T01:26:07;4.18;;;2.45;;
72053;SDS011;59918;51.280;7.950;2022-12-18T01:28:38;3.05;;;1.95;;
72053;SDS011;59918;51.280;7.950;2022-12-18T01:31:37;4.47;;;2.50;;
72053;SDS011;59918;51.280;7.950;2022-12-18T01:33:57;3.10;;;2.05;;
72053;SDS011;59918;51.280;7.950;2022-12-18T01:36:26;4.65;;;2.25;;
72053;SDS011;59918;51.280;7.950;2022-12-18T01:38:55;5.00;;;2.50;;
72053;SDS011;59918;51.280;7.950;2022-12-18T01:41:23;5.30;;;2.33;;
72053;SDS011;59918;51.280;7.950;2022-12-18T01:43:54;5.45;;;2.70;;
72053;SDS011;59918;51.280;7.950;2022-12-18T01:46:22;3.45;;;2.47;;
72053;SDS011;59918;51.280;7.950;2022-12-18T01:48:48;4.97;;;2.40;;
72053;SDS011;59918;51.280;7.950;2022-12-18T01:51:18;4.18;;;2.10;;
72053;SDS011;59918;51.280;7.950;2022-12-18T01:53:44;4.07;;;2.58;;
72053;SDS011;59918;51.280;7.950;2022-12-18T01:56:14;4.07;;;2.50;;
72053;SDS011;59918;51.280;7.950;2022-12-18T02:01:16;4.97;;;2.55;;
72053;SDS011;59918;51.280;7.950;2022-12-18T02:03:43;3.08;;;2.60;;
72053;SDS011;59918;51.280;7.950;2022-12-18T02:06:29;8.90;;;3.08;;
72053;SDS011;59918;51.280;7.950;2022-12-18T02:09:07;3.97;;;2.40;;
72053;SDS011;59918;51.280;7.950;2022-12-18T02:11:39;4.38;;;2.25;;
72053;SDS011;59918;51.280;7.950;2022-12-18T02:24:56;4.82;;;2.15;;
72053;SDS011;59918;51.280;7.950;2022-12-18T02:27:29;5.40;;;2.58;;
72053;SDS011;59918;51.280;7.950;2022-12-18T02:29:57;2.95;;;2.33;;
72053;SDS011;59918;51.280;7.950;2022-12-18T02:32:25;4.32;;;2.15;;
72053;SDS011;59918;51.280;7.950;2022-12-18T02:34:53;3.10;;;2.25;;
72053;SDS011;59918;51.280;7.950;2022-12-18T02:37:21;4.13;;;2.78;;
72053;SDS011;59918;51.280;7.950;2022-12-18T02:39:48;2.92;;;2.08;;
72053;SDS011;59918;51.280;7.950;2022-12-18T02:42:14;4.15;;;2.47;;
72053;SDS011;59918;51.280;7.950;2022-12-18T02:44:42;2.80;;;1.90;;
72053;SDS011;59918;51.280;7.950;2022-12-18T02:47:09;3.65;;;2.17;;
72053;SDS011;59918;51.280;7.950;2022-12-18T02:49:38;2.67;;;2.28;;
72053;SDS011;59918;51.280;7.950;2022-12-18T02:54:50;5.32;;;2.13;;
72053;SDS011;59918;51.280;7.950;2022-12-18T03:00:30;3.13;;;2.00;;
72053;SDS011;59918;51.280;7.950;2022-12-18T03:05:40;5.20;;;2.30;;
72053;SDS011;59918;51.280;7.950;2022-12-18T03:08:07;3.40;;;2.30;;
72053;SDS011;59918;51.280;7.950;2022-12-18T03:13:38;5.30;;;2.50;;
72053;SDS011;59918;51.280;7.950;2022-12-18T03:16:06;4.65;;;2.17;;
72053;SDS011;59918;51.280;7.950;2022-12-18T03:18:54;2.67;;;1.52;;
72053;SDS011;59918;51.280;7.950;2022-12-18T03:21:23;3.75;;;2.05;;
72053;SDS011;59918;51.280;7.950;2022-12-18T03:23:53;3.15;;;2.30;;
72053;SDS011;59918;51.280;7.950;2022-12-18T03:26:22;3.25;;;2.50;;
72053;SDS011;59918;51.280;7.950;2022-12-18T03:28:51;4.43;;;2.22;;
72053;SDS011;59918;51.280;7.950;2022-12-18T03:31:21;4.13;;;2.22;;
72053;SDS011;59918;51.280;7.950;2022-12-18T03:33:52;4.78;;;2.33;;
72053;SDS011;59918;51.280;7.950;2022-12-18T03:36:19;6.55;;;2.90;;
72053;SDS011;59918;51.280;7.950;2022-12-18T03:38:44;3.55;;;2.15;;
72053;SDS011;59918;51.280;7.950;2022-12-18T03:41:19;2.35;;;2.10;;
72053;SDS011;59918;51.280;7.950;2022-12-18T03:44:04;3.92;;;2.40;;
72053;SDS011;59918;51.280;7.950;2022-12-18T03:49:10;3.78;;;2.63;;
72053;SDS011;59918;51.280;7.950;2022-12-18T03:54:19;2.60;;;2.35;;
72053;SDS011;59918;51.280;7.950;2022-12-18T03:56:46;2.95;;;2.15;;
72053;SDS011;59918;51.280;7.950;2022-12-18T03:59:17;5.57;;;2.90;;
72053;SDS011;59918;51.280;7.950;2022-12-18T04:01:46;3.67;;;2.72;;
72053;SDS011;59918;51.280;7.950;2022-12-18T04:04:14;4.03;;;2.83;;
72053;SDS011;59918;51.280;7.950;2022-12-18T04:06:41;4.60;;;2.97;;
72053;SDS011;59918;51.280;7.950;2022-12-18T04:09:07;3.22;;;2.53;;
72053;SDS011;59918;51.280;7.950;2022-12-18T04:11:33;5.72;;;2.88;;
72053;SDS011;59918;51.280;7.950;2022-12-18T04:13:58;4.68;;;2.72;;
72053;SDS011;59918;51.280;7.950;2022-12-18T04:16:24;5.30;;;2.53;;
72053;SDS011;59918;51.280;7.950;2022-12-18T04:18:50;7.13;;;2.83;;
72053;SDS011;59918;51.280;7.950;2022-12-18T04:21:17;5.25;;;2.97;;
72053;SDS011;59918;51.280;7.950;2022-12-18T04:23:42;5.05;;;2.75;;
72053;SDS011;59918;51.280;7.950;2022-12-18T04:26:07;3.25;;;2.22;;
72053;SDS011;59918;51.280;7.950;2022-12-18T04:28:32;3.85;;;2.35;;
72053;SDS011;59918;51.280;7.950;2022-12-18T04:30:58;6.75;;;3.30;;
72053;SDS011;59918;51.280;7.950;2022-12-18T04:33:23;4.25;;;2.78;;
72053;SDS011;59918;51.280;7.950;2022-12-18T04:35:48;5.28;;;2.92;;
72053;SDS011;59918;51.280;7.950;2022-12-18T04:38:13;5.40;;;2.92;;
72053;SDS011;59918;51.280;7.950;2022-12-18T04:40:39;5.25;;;3.58;;
72053;SDS011;59918;51.280;7.950;2022-12-18T04:43:04;5.38;;;3.40;;
72053;SDS011;59918;51.280;7.950;2022-12-18T04:45:30;6.28;;;3.30;;
72053;SDS011;59918;51.280;7.950;2022-12-18T04:47:57;4.65;;;2.90;;
72053;SDS011;59918;51.280;7.950;2022-12-18T04:50:22;5.78;;;3.15;;
72053;SDS011;59918;51.280;7.950;2022-12-18T04:52:48;8.50;;;3.40;;
72053;SDS011;59918;51.280;7.950;2022-12-18T04:55:13;9.32;;;3.03;;
72053;SDS011;59918;51.280;7.950;2022-12-18T04:57:38;6.53;;;3.70;;
72053;SDS011;59918;51.280;7.950;2022-12-18T05:00:04;6.10;;;3.55;;
72053;SDS011;59918;51.280;7.950;2022-12-18T05:02:29;7.38;;;3.42;;
72053;SDS011;59918;51.280;7.950;2022-12-18T05:04:54;9.13;;;3.88;;
72053;SDS011;59918;51.280;7.950;2022-12-18T05:07:20;5.07;;;3.80;;
72053;SDS011;59918;51.280;7.950;2022-12-18T05:09:45;6.72;;;3.35;;
72053;SDS011;59918;51.280;7.950;2022-12-18T05:12:10;5.70;;;3.22;;
72053;SDS011;59918;51.280;7.950;2022-12-18T05:14:35;7.50;;;4.07;;
72053;SDS011;59918;51.280;7.950;2022-12-18T05:17:01;5.15;;;3.63;;
72053;SDS011;59918;51.280;7.950;2022-12-18T05:19:26;5.80;;;3.33;;
72053;SDS011;59918;51.280;7.950;2022-12-18T05:21:51;5.57;;;3.13;;
72053;SDS011;59918;51.280;7.950;2022-12-18T05:24:16;5.68;;;2.92;;
72053;SDS011;59918;51.280;7.950;2022-12-18T05:26:41;5.40;;;2.83;;
72053;SDS011;59918;51.280;7.950;2022-12-18T05:29:07;6.53;;;3.50;;
72053;SDS011;59918;51.280;7.950;2022-12-18T05:31:32;6.65;;;3.45;;
72053;SDS011;59918;51.280;7.950;2022-12-18T05:33:57;6.75;;;3.10;;
72053;SDS011;59918;51.280;7.950;2022-12-18T05:36:22;5.10;;;3.13;;
72053;SDS011;59918;51.280;7.950;2022-12-18T05:38:48;5.65;;;3.00;;
72053;SDS011;59918;51.280;7.950;2022-12-18T05:41:13;6.10;;;2.83;;
72053;SDS011;59918;51.280;7.950;2022-12-18T05:43:39;5.60;;;3.63;;
72053;SDS011;59918;51.280;7.950;2022-12-18T05:46:05;7.65;;;2.85;;
72053;SDS011;59918;51.280;7.950;2022-12-18T05:48:32;5.72;;;3.35;;
72053;SDS011;59918;51.280;7.950;2022-12-18T05:51:02;6.50;;;3.70;;
72053;SDS011;59918;51.280;7.950;2022-12-18T05:53:29;4.75;;;3.08;;
72053;SDS011;59918;51.280;7.950;2022-12-18T05:55:59;6.00;;;3.50;;
72053;SDS011;59918;51.280;7.950;2022-12-18T05:58:25;7.20;;;3.17;;
72053;SDS011;59918;51.280;7.950;2022-12-18T06:00:50;6.03;;;3.10;;
72053;SDS011;59918;51.280;7.950;2022-12-18T06:03:15;7.40;;;3.75;;
72053;SDS011;59918;51.280;7.950;2022-12-18T06:05:42;5.20;;;3.40;;
72053;SDS011;59918;51.280;7.950;2022-12-18T06:08:08;4.93;;;3.05;;
72053;SDS011;59918;51.280;7.950;2022-12-18T06:10:34;5.40;;;3.25;;
72053;SDS011;59918;51.280;7.950;2022-12-18T06:13:00;6.38;;;3.28;;
72053;SDS011;59918;51.280;7.950;2022-12-18T06:15:25;7.13;;;3.80;;
72053;SDS011;59918;51.280;7.950;2022-12-18T06:17:50;4.97;;;2.75;;
72053;SDS011;59918;51.280;7.950;2022-12-18T06:20:16;6.13;;;3.20;;
72053;SDS011;59918;51.280;7.950;2022-12-18T06:22:41;5.35;;;2.63;;
72053;SDS011;59918;51.280;7.950;2022-12-18T06:25:07;7.35;;;3.42;;
72053;SDS011;59918;51.280;7.950;2022-12-18T06:27:32;6.10;;;2.95;;
72053;SDS011;59918;51.280;7.950;2022-12-18T06:29:58;7.25;;;3.20;;
72053;SDS011;59918;51.280;7.950;2022-12-18T06:32:23;7.03;;;3.67;;
72053;SDS011;59918;51.280;7.950;2022-12-18T06:34:48;5.80;;;3.50;;
72053;SDS011;59918;51.280;7.950;2022-12-18T06:37:13;5.22;;;3.10;;
72053;SDS011;59918;51.280;7.950;2022-12-18T06:39:38;6.72;;;3.30;;
72053;SDS011;59918;51.280;7.950;2022-12-18T06:42:04;9.13;;;4.35;;
72053;SDS011;59918;51.280;7.950;2022-12-18T06:44:29;6.30;;;3.80;;
72053;SDS011;59918;51.280;7.950;2022-12-18T06:46:55;7.95;;;3.63;;
72053;SDS011;59918;51.280;7.950;2022-12-18T06:49:20;6.90;;;3.65;;
72053;SDS011;59918;51.280;7.950;2022-12-18T06:51:45;5.10;;;2.97;;
72053;SDS011;59918;51.280;7.950;2022-12-18T06:54:11;8.77;;;4.20;;
72053;SDS011;59918;51.280;7.950;2022-12-18T06:56:36;5.72;;;3.63;;
72053;SDS011;59918;51.280;7.950;2022-12-18T06:59:01;5.57;;;3.03;;
72053;SDS011;59918;51.280;7.950;2022-12-18T07:01:26;5.63;;;3.00;;
72053;SDS011;59918;51.280;7.950;2022-12-18T07:03:52;6.72;;;3.70;;
72053;SDS011;59918;51.280;7.950;2022-12-18T07:06:19;5.65;;;3.67;;
72053;SDS011;59918;51.280;7.950;2022-12-18T07:08:46;7.50;;;3.55;;
72053;SDS011;59918;51.280;7.950;2022-12-18T07:11:12;4.78;;;3.03;;
72053;SDS011;59918;51.280;7.950;2022-12-18T07:13:37;5.35;;;3.38;;
72053;SDS011;59918;51.280;7.950;2022-12-18T07:16:10;6.93;;;3.70;;
72053;SDS011;59918;51.280;7.950;2022-12-18T07:18:36;5.88;;;3.30;;
72053;SDS011;59918;51.280;7.950;2022-12-18T07:21:06;4.43;;;3.00;;
72053;SDS011;59918;51.280;7.950;2022-12-18T07:23:33;7.82;;;4.30;;
72053;SDS011;59918;51.280;7.950;2022-12-18T07:26:00;5.47;;;2.90;;
72053;SDS011;59918;51.280;7.950;2022-12-18T07:28:26;7.13;;;3.85;;
72053;SDS011;59918;51.280;7.950;2022-12-18T07:30:52;9.65;;;4.35;;
72053;SDS011;59918;51.280;7.950;2022-12-18T07:33:17;7.28;;;4.60;;
72053;SDS011;59918;51.280;7.950;2022-12-18T07:35:42;5.90;;;3.75;;
72053;SDS011;59918;51.280;7.950;2022-12-18T07:38:07;8.25;;;4.32;;
72053;SDS011;59918;51.280;7.950;2022-12-18T07:40:33;6.53;;;3.40;;
72053;SDS011;59918;51.280;7.950;2022-12-18T07:42:58;4.85;;;3.63;;
72053;SDS011;59918;51.280;7.950;2022-12-18T07:45:23;7.68;;;3.53;;
72053;SDS011;59918;51.280;7.950;2022-12-18T07:47:48;7.75;;;4.05;;
72053;SDS011;59918;51.280;7.950;2022-12-18T07:50:14;5.45;;;3.67;;
72053;SDS011;59918;51.280;7.950;2022-12-18T07:52:39;4.70;;;2.80;;
72053;SDS011;59918;51.280;7.950;2022-12-18T07:55:04;6.30;;;3.25;;
72053;SDS011;59918;51.280;7.950;2022-12-18T07:57:30;4.55;;;3.25;;
72053;SDS011;59918;51.280;7.950;2022-12-18T07:59:55;6.53;;;3.90;;
72053;SDS011;59918;51.280;7.950;2022-12-18T08:02:20;8.07;;;3.55;;
72053;SDS011;59918;51.280;7.950;2022-12-18T08:04:46;6.75;;;4.10;;
72053;SDS011;59918;51.280;7.950;2022-12-18T08:07:11;3.58;;;2.63;;
72053;SDS011;59918;51.280;7.950;2022-12-18T08:09:36;5.55;;;3.50;;
72053;SDS011;59918;51.280;7.950;2022-12-18T08:12:01;6.75;;;3.60;;
72053;SDS011;59918;51.280;7.950;2022-12-18T08:14:27;7.07;;;3.58;;
72053;SDS011;59918;51.280;7.950;2022-12-18T08:16:52;6.28;;;3.28;;
72053;SDS011;59918;51.280;7.950;2022-12-18T08:19:17;6.93;;;3.45;;
72053;SDS011;59918;51.280;7.950;2022-12-18T08:21:43;5.97;;;3.55;;
72053;SDS011;59918;51.280;7.950;2022-12-18T08:24:08;8.35;;;3.72;;
72053;SDS011;59918;51.280;7.950;2022-12-18T08:26:34;6.30;;;3.53;;
72053;SDS011;59918;51.280;7.950;2022-12-18T08:28:59;5.47;;;3.40;;
72053;SDS011;59918;51.280;7.950;2022-12-18T08:31:26;6.00;;;3.35;;
72053;SDS011;59918;51.280;7.950;2022-12-18T08:33:52;5.10;;;2.97;;
72053;SDS011;59918;51.280;7.950;2022-12-18T08:36:18;4.38;;;3.20;;
72053;SDS011;59918;51.280;7.950;2022-12-18T08:38:44;6.78;;;3.90;;
72053;SDS011;59918;51.280;7.950;2022-12-18T08:41:11;4.95;;;3.95;;
72053;SDS011;59918;51.280;7.950;2022-12-18T08:43:38;6.68;;;4.22;;
72053;SDS011;59918;51.280;7.950;2022-12-18T08:46:03;6.00;;;2.20;;
72053;SDS011;59918;51.280;7.950;2022-12-18T08:48:29;7.03;;;3.83;;
72053;SDS011;59918;51.280;7.950;2022-12-18T08:50:57;5.40;;;3.03;;
72053;SDS011;59918;51.280;7.950;2022-12-18T08:53:23;4.95;;;3.00;;
72053;SDS011;59918;51.280;7.950;2022-12-18T08:55:49;6.93;;;3.58;;
72053;SDS011;59918;51.280;7.950;2022-12-18T08:58:14;8.10;;;3.95;;
72053;SDS011;59918;51.280;7.950;2022-12-18T09:00:39;5.88;;;3.20;;
72053;SDS011;59918;51.280;7.950;2022-12-18T09:03:04;3.22;;;2.80;;
72053;SDS011;59918;51.280;7.950;2022-12-18T09:05:30;6.47;;;2.83;;
72053;SDS011;59918;51.280;7.950;2022-12-18T09:07:55;7.82;;;3.50;;
72053;SDS011;59918;51.280;7.950;2022-12-18T09:10:20;5.45;;;2.65;;
72053;SDS011;59918;51.280;7.950;2022-12-18T09:12:45;5.28;;;3.25;;
72053;SDS011;59918;51.280;7.950;2022-12-18T09:15:11;4.57;;;3.17;;
72053;SDS011;59918;51.280;7.950;2022-12-18T09:17:36;3.08;;;2.63;;
72053;SDS011;59918;51.280;7.950;2022-12-18T09:20:01;5.28;;;2.97;;
72053;SDS011;59918;51.280;7.950;2022-12-18T09:22:27;6.85;;;3.10;;
72053;SDS011;59918;51.280;7.950;2022-12-18T09:24:52;8.98;;;3.13;;
72053;SDS011;59918;51.280;7.950;2022-12-18T09:27:17;8.60;;;2.40;;
72053;SDS011;59918;51.280;7.950;2022-12-18T09:29:42;4.75;;;3.00;;
72053;SDS011;59918;51.280;7.950;2022-12-18T09:32:08;8.27;;;3.72;;
72053;SDS011;59918;51.280;7.950;2022-12-18T09:34:33;6.35;;;2.95;;
72053;SDS011;59918;51.280;7.950;2022-12-18T09:36:58;6.55;;;2.50;;
72053;SDS011;59918;51.280;7.950;2022-12-18T09:39:23;6.25;;;2.88;;
72053;SDS011;59918;51.280;7.950;2022-12-18T09:41:52;6.55;;;3.03;;
72053;SDS011;59918;51.280;7.950;2022-12-18T09:47:07;3.05;;;2.28;;
72053;SDS011;59918;51.280;7.950;2022-12-18T09:49:40;5.35;;;2.92;;
72053;SDS011;59918;51.280;7.950;2022-12-18T09:55:05;3.80;;;2.33;;
72053;SDS011;59918;51.280;7.950;2022-12-18T09:57:55;3.40;;;3.10;;
72053;SDS011;59918;51.280;7.950;2022-12-18T10:00:25;4.82;;;3.13;;
72053;SDS011;59918;51.280;7.950;2022-12-18T10:02:51;11.60;;;2.97;;
72053;SDS011;59918;51.280;7.950;2022-12-18T10:05:28;17.67;;;4.20;;
72053;SDS011;59918;51.280;7.950;2022-12-18T10:11:25;4.38;;;2.58;;
72053;SDS011;59918;51.280;7.950;2022-12-18T10:19:50;5.47;;;2.38;;
72053;SDS011;59918;51.280;7.950;2022-12-18T10:27:23;5.53;;;1.67;;
72053;SDS011;59918;51.280;7.950;2022-12-18T10:29:50;2.42;;;2.10;;
72053;SDS011;59918;51.280;7.950;2022-12-18T10:32:17;2.63;;;1.58;;
72053;SDS011;59918;51.280;7.950;2022-12-18T10:34:45;4.15;;;2.00;;
72053;SDS011;59918;51.280;7.950;2022-12-18T10:37:13;3.67;;;1.98;;
72053;SDS011;59918;51.280;7.950;2022-12-18T10:39:45;2.83;;;2.17;;
72053;SDS011;59918;51.280;7.950;2022-12-18T10:42:18;3.83;;;1.75;;
72053;SDS011;59918;51.280;7.950;2022-12-18T10:44:44;3.50;;;2.10;;
72053;SDS011;59918;51.280;7.950;2022-12-18T10:47:19;2.42;;;1.90;;
72053;SDS011;59918;51.280;7.950;2022-12-18T10:49:49;4.20;;;1.90;;
72053;SDS011;59918;51.280;7.950;2022-12-18T10:52:18;3.35;;;2.28;;
72053;SDS011;59918;51.280;7.950;2022-12-18T10:54:47;1.88;;;1.73;;
72053;SDS011;59918;51.280;7.950;2022-12-18T10:57:16;3.65;;;2.42;;
72053;SDS011;59918;51.280;7.950;2022-12-18T10:59:49;3.83;;;2.38;;
72053;SDS011;59918;51.280;7.950;2022-12-18T11:02:27;2.20;;;2.00;;
72053;SDS011;59918;51.280;7.950;2022-12-18T11:04:58;4.70;;;2.10;;
72053;SDS011;59918;51.280;7.950;2022-12-18T11:07:24;3.47;;;2.03;;
72053;SDS011;59918;51.280;7.950;2022-12-18T11:09:59;3.60;;;1.50;;
72053;SDS011;59918;51.280;7.950;2022-12-18T11:12:27;4.32;;;2.22;;
72053;SDS011;59918;51.280;7.950;2022-12-18T11:14:53;2.53;;;2.00;;
72053;SDS011;59918;51.280;7.950;2022-12-18T11:17:21;2.78;;;1.77;;
72053;SDS011;59918;51.280;7.950;2022-12-18T11:20:19;2.60;;;1.77;;
72053;SDS011;59918;51.280;7.950;2022-12-18T11:23:01;3.80;;;1.90;;
72053;SDS011;59918;51.280;7.950;2022-12-18T11:25:29;5.00;;;1.77;;
72053;SDS011;59918;51.280;7.950;2022-12-18T11:28:08;1.58;;;1.48;;
72053;SDS011;59918;51.280;7.950;2022-12-18T11:33:45;2.05;;;1.45;;
72053;SDS011;59918;51.280;7.950;2022-12-18T11:36:15;1.92;;;1.58;;
72053;SDS011;59918;51.280;7.950;2022-12-18T11:38:42;6.43;;;2.55;;
72053;SDS011;59918;51.280;7.950;2022-12-18T11:43:55;2.28;;;2.08;;
72053;SDS011;59918;51.280;7.950;2022-12-18T11:46:49;1.75;;;1.65;;
72053;SDS011;59918;51.280;7.950;2022-12-18T11:49:24;7.97;;;1.80;;
72053;SDS011;59918;51.280;7.950;2022-12-18T11:51:58;2.00;;;1.70;;
72053;SDS011;59918;51.280;7.950;2022-12-18T11:54:25;1.92;;;1.40;;
72053;SDS011;59918;51.280;7.950;2022-12-18T11:56:53;2.17;;;1.80;;
72053;SDS011;59918;51.280;7.950;2022-12-18T12:01:52;2.97;;;1.65;;
72053;SDS011;59918;51.280;7.950;2022-12-18T12:09:39;4.75;;;2.25;;
72053;SDS011;59918;51.280;7.950;2022-12-18T12:15:11;2.92;;;2.10;;
72053;SDS011;59918;51.280;7.950;2022-12-18T12:17:42;2.40;;;2.17;;
72053;SDS011;59918;51.280;7.950;2022-12-18T12:23:33;3.50;;;2.30;;
72053;SDS011;59918;51.280;7.950;2022-12-18T12:26:01;3.67;;;2.13;;
72053;SDS011;59918;51.280;7.950;2022-12-18T12:31:22;4.50;;;2.50;;
72053;SDS011;59918;51.280;7.950;2022-12-18T12:39:17;3.95;;;2.80;;
72053;SDS011;59918;51.280;7.950;2022-12-18T12:41:48;3.92;;;2.70;;
72053;SDS011;59918;51.280;7.950;2022-12-18T12:44:15;4.82;;;3.00;;
72053;SDS011;59918;51.280;7.950;2022-12-18T12:46:44;3.47;;;2.97;;
72053;SDS011;59918;51.280;7.950;2022-12-18T12:49:20;4.32;;;2.67;;
72053;SDS011;59918;51.280;7.950;2022-12-18T12:51:50;10.75;;;3.20;;
72053;SDS011;59918;51.280;7.950;2022-12-18T12:54:23;3.30;;;2.83;;
72053;SDS011;59918;51.280;7.950;2022-12-18T13:04:57;3.53;;;2.85;;
72053;SDS011;59918;51.280;7.950;2022-12-18T13:07:39;3.00;;;2.70;;
72053;SDS011;59918;51.280;7.950;2022-12-18T13:10:31;4.53;;;3.70;;
72053;SDS011;59918;51.280;7.950;2022-12-18T13:15:36;5.32;;;4.05;;
72053;SDS011;59918;51.280;7.950;2022-12-18T13:18:19;12.75;;;9.02;;
72053;SDS011;59918;51.280;7.950;2022-12-18T13:20:47;6.03;;;5.03;;
72053;SDS011;59918;51.280;7.950;2022-12-18T13:25:49;4.25;;;3.17;;
72053;SDS011;59918;51.280;7.950;2022-12-18T13:28:16;6.25;;;3.45;;
72053;SDS011;59918;51.280;7.950;2022-12-18T13:41:00;5.47;;;4.20;;
72053;SDS011;59918;51.280;7.950;2022-12-18T13:46:04;6.35;;;4.00;;
72053;SDS011;59918;51.280;7.950;2022-12-18T13:48:51;11.48;;;4.60;;
72053;SDS011;59918;51.280;7.950;2022-12-18T13:51:28;6.93;;;3.88;;
72053;SDS011;59918;51.280;7.950;2022-12-18T13:56:44;8.45;;;4.63;;
72053;SDS011;59918;51.280;7.950;2022-12-18T14:01:54;4.37;;;3.67;;
72053;SDS011;59918;51.280;7.950;2022-12-18T14:04:27;6.55;;;4.05;;
72053;SDS011;59918;51.280;7.950;2022-12-18T14:06:58;6.70;;;4.60;;
72053;SDS011;59918;51.280;7.950;2022-12-18T14:09:34;9.43;;;5.22;;
72053;SDS011;59918;51.280;7.950;2022-12-18T14:12:02;8.05;;;5.20;;
72053;SDS011;59918;51.280;7.950;2022-12-18T14:14:27;8.27;;;5.03;;
72053;SDS011;59918;51.280;7.950;2022-12-18T14:16:53;8.73;;;5.13;;
72053;SDS011;59918;51.280;7.950;2022-12-18T14:19:19;9.23;;;4.80;;
72053;SDS011;59918;51.280;7.950;2022-12-18T14:21:47;12.00;;;5.72;;
72053;SDS011;59918;51.280;7.950;2022-12-18T14:24:16;10.52;;;5.68;;
72053;SDS011;59918;51.280;7.950;2022-12-18T14:26:44;10.70;;;6.80;;
72053;SDS011;59918;51.280;7.950;2022-12-18T14:32:10;12.68;;;5.32;;
72053;SDS011;59918;51.280;7.950;2022-12-18T14:34:40;10.13;;;6.40;;
72053;SDS011;59918;51.280;7.950;2022-12-18T14:37:05;7.47;;;5.57;;
72053;SDS011;59918;51.280;7.950;2022-12-18T14:39:34;9.85;;;5.18;;
72053;SDS011;59918;51.280;7.950;2022-12-18T14:41:59;11.68;;;6.43;;
72053;SDS011;59918;51.280;7.950;2022-12-18T14:44:24;10.25;;;6.85;;
72053;SDS011;59918;51.280;7.950;2022-12-18T14:46:49;10.32;;;5.80;;
72053;SDS011;59918;51.280;7.950;2022-12-18T14:51:47;16.20;;;7.57;;
72053;SDS011;59918;51.280;7.950;2022-12-18T14:54:18;11.02;;;5.88;;
72053;SDS011;59918;51.280;7.950;2022-12-18T14:56:51;12.32;;;6.93;;
72053;SDS011;59918;51.280;7.950;2022-12-18T14:59:24;12.93;;;7.55;;
72053;SDS011;59918;51.280;7.950;2022-12-18T15:04:33;18.50;;;7.45;;
72053;SDS011;59918;51.280;7.950;2022-12-18T15:09:28;11.65;;;6.68;;
72053;SDS011;59918;51.280;7.950;2022-12-18T15:11:57;14.13;;;7.05;;
72053;SDS011;59918;51.280;7.950;2022-12-18T15:16:56;14.38;;;6.70;;
72053;SDS011;59918;51.280;7.950;2022-12-18T15:19:26;12.90;;;7.68;;
72053;SDS011;59918;51.280;7.950;2022-12-18T15:21:58;12.88;;;6.50;;
72053;SDS011;59918;51.280;7.950;2022-12-18T15:24:26;16.65;;;7.70;;
72053;SDS011;59918;51.280;7.950;2022-12-18T15:26:55;14.90;;;7.70;;
72053;SDS011;59918;51.280;7.950;2022-12-18T15:29:20;22.02;;;7.40;;
72053;SDS011;59918;51.280;7.950;2022-12-18T15:31:58;15.25;;;7.80;;
72053;SDS011;59918;51.280;7.950;2022-12-18T15:34:24;15.40;;;7.53;;
72053;SDS011;59918;51.280;7.950;2022-12-18T15:36:50;8.05;;;5.47;;
72053;SDS011;59918;51.280;7.950;2022-12-18T15:39:18;14.20;;;7.65;;
72053;SDS011;59918;51.280;7.950;2022-12-18T15:41:44;17.52;;;7.95;;
72053;SDS011;59918;51.280;7.950;2022-12-18T15:44:42;15.93;;;7.53;;
72053;SDS011;59918;51.280;7.950;2022-12-18T15:47:01;12.77;;;7.10;;
72053;SDS011;59918;51.280;7.950;2022-12-18T15:49:26;13.52;;;7.25;;
72053;SDS011;59918;51.280;7.950;2022-12-18T15:51:52;14.43;;;8.07;;
72053;SDS011;59918;51.280;7.950;2022-12-18T15:54:19;18.83;;;8.68;;
72053;SDS011;59918;51.280;7.950;2022-12-18T15:56:46;13.55;;;6.13;;
72053;SDS011;59918;51.280;7.950;2022-12-18T15:59:12;14.23;;;8.20;;
72053;SDS011;59918;51.280;7.950;2022-12-18T16:01:39;15.75;;;8.05;;
72053;SDS011;59918;51.280;7.950;2022-12-18T16:04:06;15.95;;;8.18;;
72053;SDS011;59918;51.280;7.950;2022-12-18T16:06:31;15.80;;;8.43;;
72053;SDS011;59918;51.280;7.950;2022-12-18T16:08:56;17.35;;;8.07;;
72053;SDS011;59918;51.280;7.950;2022-12-18T16:11:28;15.95;;;8.43;;
72053;SDS011;59918;51.280;7.950;2022-12-18T16:13:55;15.48;;;8.05;;
72053;SDS011;59918;51.280;7.950;2022-12-18T16:16:20;17.45;;;8.80;;
72053;SDS011;59918;51.280;7.950;2022-12-18T16:18:45;14.73;;;7.65;;
72053;SDS011;59918;51.280;7.950;2022-12-18T16:21:11;20.30;;;8.13;;
72053;SDS011;59918;51.280;7.950;2022-12-18T16:23:36;16.70;;;8.52;;
72053;SDS011;59918;51.280;7.950;2022-12-18T16:26:01;17.75;;;7.95;;
72053;SDS011;59918;51.280;7.950;2022-12-18T16:28:27;17.88;;;9.50;;
72053;SDS011;59918;51.280;7.950;2022-12-18T16:30:52;14.60;;;7.93;;
72053;SDS011;59918;51.280;7.950;2022-12-18T16:33:17;17.83;;;8.57;;
72053;SDS011;59918;51.280;7.950;2022-12-18T16:35:42;14.40;;;7.95;;
72053;SDS011;59918;51.280;7.950;2022-12-18T16:38:07;13.77;;;7.38;;
72053;SDS011;59918;51.280;7.950;2022-12-18T16:40:33;14.77;;;8.05;;
72053;SDS011;59918;51.280;7.950;2022-12-18T16:42:58;17.40;;;9.38;;
72053;SDS011;59918;51.280;7.950;2022-12-18T16:45:23;17.17;;;8.90;;
72053;SDS011;59918;51.280;7.950;2022-12-18T16:47:51;16.50;;;9.10;;
72053;SDS011;59918;51.280;7.950;2022-12-18T16:50:17;21.02;;;9.68;;
72053;SDS011;59918;51.280;7.950;2022-12-18T16:52:42;23.75;;;11.27;;